createdAt,value
2017-06-06T00:00:06.833Z,0
2017-06-06T00:01:28.353Z,0
2017-06-06T00:02:50.603Z,0
2017-06-06T00:04:12.083Z,0
2017-06-06T00:05:34.273Z,0
2017-06-06T00:06:56.119Z,0
2017-06-06T00:08:18.311Z,0
2017-06-06T00:09:40.065Z,0
2017-06-06T00:11:01.890Z,0
2017-06-06T00:12:24.060Z,0
2017-06-06T00:13:46.308Z,0
2017-06-06T00:15:08.183Z,0
2017-06-06T00:16:30.013Z,0
2017-06-06T00:17:51.870Z,0
2017-06-06T00:19:13.759Z,0
2017-06-06T00:20:36.230Z,0
2017-06-06T00:21:58.533Z,0
2017-06-06T00:23:20.400Z,0
2017-06-06T00:24:42.552Z,0
2017-06-06T00:26:04.046Z,0
2017-06-06T00:27:25.581Z,0
2017-06-06T00:28:47.412Z,0
2017-06-06T00:30:08.921Z,0
2017-06-06T00:31:31.063Z,0
2017-06-06T00:32:53.244Z,0
2017-06-06T00:34:14.853Z,0
2017-06-06T00:35:37.323Z,0
2017-06-06T00:36:59.155Z,0
2017-06-06T00:38:20.994Z,0
2017-06-06T00:39:43.484Z,0
2017-06-06T00:41:05.313Z,0
2017-06-06T00:42:27.770Z,0
2017-06-06T00:43:50.013Z,0
2017-06-06T00:45:12.529Z,0
2017-06-06T00:46:34.688Z,0
2017-06-06T00:47:57.491Z,0
2017-06-06T00:49:20.044Z,0
2017-06-06T00:50:42.520Z,0
2017-06-06T00:52:04.349Z,0
2017-06-06T00:53:26.453Z,0
2017-06-06T00:54:48.677Z,0
2017-06-06T00:56:10.513Z,0
2017-06-06T00:57:32.373Z,0
2017-06-06T00:58:54.585Z,0
2017-06-06T01:00:16.413Z,0
2017-06-06T01:01:39.023Z,0
2017-06-06T01:03:00.913Z,0
2017-06-06T01:04:23.362Z,0
2017-06-06T01:05:44.882Z,0
2017-06-06T01:07:07.354Z,0
2017-06-06T01:08:29.501Z,0
2017-06-06T01:09:51.947Z,0
2017-06-06T01:11:14.084Z,0
2017-06-06T01:12:36.249Z,0
2017-06-06T01:13:58.374Z,0
2017-06-06T01:15:20.544Z,0
2017-06-06T01:16:43.023Z,0
2017-06-06T01:18:05.344Z,0
2017-06-06T01:19:27.562Z,0
2017-06-06T01:20:50.093Z,0
2017-06-06T01:22:11.654Z,0
2017-06-06T01:23:33.303Z,0
2017-06-06T01:24:55.143Z,0
2017-06-06T01:26:17.653Z,0
2017-06-06T01:27:40.124Z,0
2017-06-06T01:29:02.294Z,0
2017-06-06T01:30:24.744Z,0
2017-06-06T01:31:47.253Z,0
2017-06-06T01:33:08.762Z,0
2017-06-06T01:34:30.603Z,0
2017-06-06T01:35:53.063Z,0
2017-06-06T01:37:15.198Z,0
2017-06-06T01:38:37.662Z,0
2017-06-06T01:39:59.202Z,0
2017-06-06T01:41:21.463Z,0
2017-06-06T01:42:43.903Z,0
2017-06-06T01:44:06.084Z,0
2017-06-06T01:45:27.952Z,0
2017-06-06T01:46:49.554Z,0
2017-06-06T01:48:11.393Z,0
2017-06-06T01:49:33.847Z,0
2017-06-06T01:50:56.106Z,0
2017-06-06T01:52:18.691Z,0
2017-06-06T01:53:41.503Z,0
2017-06-06T01:55:03.660Z,0
2017-06-06T01:56:25.534Z,0
2017-06-06T01:57:48.094Z,0
2017-06-06T01:59:10.504Z,0
2017-06-06T02:00:32.669Z,0
2017-06-06T02:01:55.243Z,0
2017-06-06T02:03:17.414Z,0
2017-06-06T02:04:40.239Z,0
2017-06-06T02:06:02.114Z,0
2017-06-06T02:07:24.249Z,0
2017-06-06T02:08:46.503Z,0
2017-06-06T02:10:09.266Z,0
2017-06-06T02:11:31.560Z,0
2017-06-06T02:12:54.014Z,0
2017-06-06T02:14:16.263Z,0
2017-06-06T02:15:38.731Z,0
2017-06-06T02:17:01.013Z,0
2017-06-06T02:18:22.524Z,0
2017-06-06T02:19:45.043Z,0
2017-06-06T02:21:07.512Z,0
2017-06-06T02:22:29.443Z,0
2017-06-06T02:23:51.284Z,0
2017-06-06T02:25:12.794Z,0
2017-06-06T02:26:35.584Z,0
2017-06-06T02:27:57.852Z,0
2017-06-06T02:29:19.675Z,0
2017-06-06T02:30:41.605Z,0
2017-06-06T02:32:03.680Z,0
2017-06-06T02:33:25.824Z,0
2017-06-06T02:34:47.970Z,0
2017-06-06T02:36:09.490Z,0
2017-06-06T02:37:31.964Z,0
2017-06-06T02:38:54.204Z,0
2017-06-06T02:40:16.081Z,0
2017-06-06T02:41:37.963Z,0
2017-06-06T02:43:00.104Z,0
2017-06-06T02:44:22.681Z,0
2017-06-06T02:45:44.226Z,0
2017-06-06T02:47:05.743Z,5
2017-06-06T02:48:27.954Z,5
2017-06-06T02:49:49.854Z,5
2017-06-06T02:51:12.316Z,5
2017-06-06T02:52:34.463Z,5
2017-06-06T02:53:56.334Z,5
2017-06-06T02:55:18.485Z,10
2017-06-06T02:56:40.748Z,10
2017-06-06T02:58:02.905Z,10
2017-06-06T02:59:25.154Z,10
2017-06-06T03:00:47.073Z,10
2017-06-06T03:02:08.294Z,15
2017-06-06T03:03:29.934Z,15
2017-06-06T03:04:52.472Z,15
2017-06-06T03:06:14.788Z,15
2017-06-06T03:07:36.293Z,20
2017-06-06T03:08:58.111Z,20
2017-06-06T03:10:19.553Z,25
2017-06-06T03:11:41.363Z,25
2017-06-06T03:13:03.185Z,25
2017-06-06T03:14:25.444Z,30
2017-06-06T03:15:47.824Z,30
2017-06-06T03:17:09.953Z,35
2017-06-06T03:18:32.435Z,35
2017-06-06T03:19:54.313Z,35
2017-06-06T03:21:16.571Z,35
2017-06-06T03:22:39.035Z,35
2017-06-06T03:24:00.863Z,40
2017-06-06T03:25:23.314Z,40
2017-06-06T03:26:45.370Z,45
2017-06-06T03:28:07.564Z,45
2017-06-06T03:29:29.714Z,50
2017-06-06T03:30:51.544Z,55
2017-06-06T03:32:13.794Z,55
2017-06-06T03:33:35.933Z,60
2017-06-06T03:34:58.416Z,60
2017-06-06T03:36:20.872Z,65
2017-06-06T03:37:42.732Z,65
2017-06-06T03:39:04.554Z,70
2017-06-06T03:40:26.793Z,70
2017-06-06T03:41:48.743Z,75
2017-06-06T03:43:10.293Z,80
2017-06-06T03:44:31.911Z,80
2017-06-06T03:45:54.070Z,80
2017-06-06T03:47:16.023Z,80
2017-06-06T03:48:38.352Z,85
2017-06-06T03:50:00.510Z,85
2017-06-06T03:51:22.074Z,90
2017-06-06T03:52:44.259Z,95
2017-06-06T03:54:06.373Z,95
2017-06-06T03:55:28.501Z,100
2017-06-06T03:56:50.353Z,100
2017-06-06T03:58:12.639Z,105
2017-06-06T03:59:35.078Z,105
2017-06-06T04:00:57.530Z,110
2017-06-06T04:02:19.795Z,120
2017-06-06T04:03:41.754Z,120
2017-06-06T04:05:04.103Z,120
2017-06-06T04:06:25.772Z,125
2017-06-06T04:07:48.063Z,125
2017-06-06T04:09:10.210Z,125
2017-06-06T04:10:32.792Z,130
2017-06-06T04:11:54.922Z,135
2017-06-06T04:13:16.473Z,140
2017-06-06T04:14:39.004Z,145
2017-06-06T04:16:01.132Z,150
2017-06-06T04:17:22.973Z,160
2017-06-06T04:18:45.153Z,170
2017-06-06T04:20:06.992Z,175
2017-06-06T04:21:29.257Z,180
2017-06-06T04:22:51.513Z,185
2017-06-06T04:24:13.122Z,185
2017-06-06T04:25:34.960Z,190
2017-06-06T04:26:57.242Z,195
2017-06-06T04:28:18.762Z,200
2017-06-06T04:29:40.583Z,200
2017-06-06T04:31:02.736Z,200
2017-06-06T04:32:25.592Z,205
2017-06-06T04:33:47.761Z,205
2017-06-06T04:35:09.313Z,210
2017-06-06T04:36:30.953Z,205
2017-06-06T04:37:52.423Z,205
2017-06-06T04:39:13.612Z,205
2017-06-06T04:40:35.432Z,210
2017-06-06T04:41:57.265Z,210
2017-06-06T04:43:19.873Z,200
2017-06-06T04:44:42.024Z,205
2017-06-06T04:46:04.516Z,215
2017-06-06T04:47:26.340Z,230
2017-06-06T04:48:48.174Z,240
2017-06-06T04:50:10.313Z,280
2017-06-06T04:51:31.862Z,365
2017-06-06T04:52:53.703Z,405
2017-06-06T04:54:15.893Z,440
2017-06-06T04:55:37.710Z,450
2017-06-06T04:56:59.523Z,370
2017-06-06T04:58:21.351Z,430
2017-06-06T04:59:43.881Z,475
2017-06-06T05:01:05.403Z,495
2017-06-06T05:02:27.871Z,475
2017-06-06T05:03:49.708Z,525
2017-06-06T05:05:11.784Z,490
2017-06-06T05:06:33.634Z,450
2017-06-06T05:07:55.795Z,455
2017-06-06T05:09:17.324Z,485
2017-06-06T05:10:39.183Z,550
2017-06-06T05:12:01.334Z,450
2017-06-06T05:13:23.163Z,445
2017-06-06T05:14:45.051Z,460
2017-06-06T05:16:06.914Z,485
2017-06-06T05:17:29.383Z,610
2017-06-06T05:18:51.351Z,665
2017-06-06T05:20:13.258Z,675
2017-06-06T05:21:35.530Z,670
2017-06-06T05:22:57.382Z,710
2017-06-06T05:24:20.003Z,645
2017-06-06T05:25:42.580Z,725
2017-06-06T05:27:05.096Z,885
2017-06-06T05:28:27.276Z,885
2017-06-06T05:29:49.434Z,745
2017-06-06T05:31:10.951Z,795
2017-06-06T05:32:33.785Z,800
2017-06-06T05:33:55.542Z,830
2017-06-06T05:35:17.072Z,655
2017-06-06T05:36:38.982Z,785
2017-06-06T05:38:01.492Z,770
2017-06-06T05:39:23.013Z,835
2017-06-06T05:40:44.552Z,820
2017-06-06T05:42:06.697Z,800
2017-06-06T05:43:29.595Z,840
2017-06-06T05:44:51.481Z,830
2017-06-06T05:46:13.853Z,795
2017-06-06T05:47:36.012Z,820
2017-06-06T05:48:57.800Z,755
2017-06-06T05:50:19.893Z,665
2017-06-06T05:51:42.358Z,690
2017-06-06T05:53:04.262Z,735
2017-06-06T05:54:26.472Z,660
2017-06-06T05:55:48.412Z,515
2017-06-06T05:57:10.635Z,740
2017-06-06T05:58:33.162Z,530
2017-06-06T05:59:55.946Z,515
2017-06-06T06:01:17.826Z,625
2017-06-06T06:02:39.671Z,380
2017-06-06T06:04:02.258Z,350
2017-06-06T06:05:24.403Z,310
2017-06-06T06:06:46.566Z,295
2017-06-06T06:08:08.796Z,295
2017-06-06T06:09:31.102Z,280
2017-06-06T06:10:53.650Z,260
2017-06-06T06:12:15.803Z,250
2017-06-06T06:13:37.983Z,255
2017-06-06T06:15:00.130Z,300
2017-06-06T06:16:22.923Z,405
2017-06-06T06:17:44.833Z,470
2017-06-06T06:19:07.153Z,440
2017-06-06T06:20:29.624Z,490
2017-06-06T06:21:51.965Z,475
2017-06-06T06:23:14.462Z,500
2017-06-06T06:24:36.682Z,555
2017-06-06T06:25:58.213Z,565
2017-06-06T06:27:20.726Z,530
2017-06-06T06:28:42.575Z,525
2017-06-06T06:30:04.862Z,440
2017-06-06T06:31:27.131Z,480
2017-06-06T06:32:49.055Z,570
2017-06-06T06:34:11.203Z,550
2017-06-06T06:35:33.357Z,565
2017-06-06T06:36:55.341Z,580
2017-06-06T06:38:18.182Z,575
2017-06-06T06:39:40.333Z,525
2017-06-06T06:41:01.917Z,510
2017-06-06T06:42:23.773Z,540
2017-06-06T06:43:46.261Z,540
2017-06-06T06:45:07.892Z,515
2017-06-06T06:46:29.754Z,520
2017-06-06T06:47:51.733Z,555
2017-06-06T06:49:13.992Z,595
2017-06-06T06:50:36.342Z,590
2017-06-06T06:51:58.648Z,575
2017-06-06T06:53:20.519Z,470
2017-06-06T06:54:43.090Z,525
2017-06-06T06:56:05.324Z,580
2017-06-06T06:57:28.025Z,585
2017-06-06T06:58:50.192Z,520
2017-06-06T07:00:12.338Z,535
2017-06-06T07:01:34.811Z,515
2017-06-06T07:02:57.124Z,585
2017-06-06T07:04:19.589Z,575
2017-06-06T07:05:42.121Z,570
2017-06-06T07:07:04.607Z,590
2017-06-06T07:08:26.910Z,560
2017-06-06T07:09:49.102Z,570
2017-06-06T07:11:11.921Z,610
2017-06-06T07:12:34.114Z,630
2017-06-06T07:13:56.642Z,630
2017-06-06T07:15:18.480Z,605
2017-06-06T07:16:40.670Z,615
2017-06-06T07:18:02.638Z,575
2017-06-06T07:19:24.901Z,580
2017-06-06T07:20:47.082Z,585
2017-06-06T07:22:09.256Z,580
2017-06-06T07:23:30.791Z,580
2017-06-06T07:24:52.660Z,580
2017-06-06T07:26:15.170Z,575
2017-06-06T07:27:36.682Z,560
2017-06-06T07:28:58.842Z,565
2017-06-06T07:30:20.380Z,565
2017-06-06T07:31:42.896Z,570
2017-06-06T07:33:05.882Z,575
2017-06-06T07:34:28.461Z,575
2017-06-06T07:35:50.740Z,565
2017-06-06T07:37:12.631Z,560
2017-06-06T07:38:34.578Z,555
2017-06-06T07:39:56.410Z,565
2017-06-06T07:41:18.921Z,565
2017-06-06T07:42:41.150Z,575
2017-06-06T07:44:03.629Z,565
2017-06-06T07:45:26.340Z,560
2017-06-06T07:46:48.189Z,545
2017-06-06T07:48:10.041Z,525
2017-06-06T07:49:32.333Z,530
2017-06-06T07:50:54.508Z,550
2017-06-06T07:52:16.840Z,545
2017-06-06T07:53:39.412Z,545
2017-06-06T07:55:01.683Z,540
2017-06-06T07:56:23.850Z,560
2017-06-06T07:57:46.014Z,545
2017-06-06T07:59:08.174Z,510
2017-06-06T08:00:31.022Z,515
2017-06-06T08:01:53.211Z,510
2017-06-06T08:03:15.071Z,485
2017-06-06T08:04:37.570Z,505
2017-06-06T08:05:59.823Z,495
2017-06-06T08:07:22.010Z,530
2017-06-06T08:08:44.179Z,540
2017-06-06T08:10:06.350Z,525
2017-06-06T08:11:28.831Z,565
2017-06-06T08:12:50.690Z,590
2017-06-06T08:14:12.858Z,500
2017-06-06T08:15:35.049Z,505
2017-06-06T08:16:57.160Z,440
2017-06-06T08:18:19.018Z,410
2017-06-06T08:19:40.857Z,425
2017-06-06T08:21:03.010Z,430
2017-06-06T08:22:25.190Z,450
2017-06-06T08:23:47.179Z,455
2017-06-06T08:25:09.655Z,480
2017-06-06T08:26:31.851Z,510
2017-06-06T08:27:54.407Z,530
2017-06-06T08:29:16.590Z,520
2017-06-06T08:30:38.481Z,485
2017-06-06T08:32:01.095Z,460
2017-06-06T08:33:23.254Z,475
2017-06-06T08:34:45.452Z,445
2017-06-06T08:36:07.611Z,430
2017-06-06T08:37:29.470Z,430
2017-06-06T08:38:51.937Z,415
2017-06-06T08:40:14.148Z,400
2017-06-06T08:41:36.470Z,390
2017-06-06T08:42:58.639Z,385
2017-06-06T08:44:21.113Z,380
2017-06-06T08:45:43.610Z,375
2017-06-06T08:47:05.460Z,375
2017-06-06T08:48:27.639Z,365
2017-06-06T08:49:49.752Z,370
2017-06-06T08:51:11.927Z,360
2017-06-06T08:52:34.360Z,370
2017-06-06T08:53:56.512Z,415
2017-06-06T08:55:18.798Z,420
2017-06-06T08:56:40.962Z,405
2017-06-06T08:58:03.149Z,410
2017-06-06T08:59:24.992Z,425
2017-06-06T09:00:47.719Z,405
2017-06-06T09:02:09.948Z,455
2017-06-06T09:03:32.130Z,495
2017-06-06T09:04:54.617Z,470
2017-06-06T09:06:17.151Z,465
2017-06-06T09:07:39.147Z,470
2017-06-06T09:09:01.637Z,455
2017-06-06T09:10:23.593Z,450
2017-06-06T09:11:46.119Z,450
2017-06-06T09:13:08.619Z,455
2017-06-06T09:14:30.872Z,475
2017-06-06T09:15:53.049Z,495
2017-06-06T09:17:15.143Z,515
2017-06-06T09:18:37.050Z,525
2017-06-06T09:19:59.309Z,530
2017-06-06T09:21:21.485Z,520
2017-06-06T09:22:43.911Z,535
2017-06-06T09:24:06.428Z,540
2017-06-06T09:25:30.782Z,525
2017-06-06T09:26:53.270Z,545
2017-06-06T09:28:15.421Z,545
2017-06-06T09:29:37.629Z,560
2017-06-06T09:31:00.140Z,545
2017-06-06T09:32:22.743Z,560
2017-06-06T09:33:44.860Z,555
2017-06-06T09:35:07.377Z,555
2017-06-06T09:36:29.242Z,575
2017-06-06T09:37:51.560Z,575
2017-06-06T09:39:13.729Z,590
2017-06-06T09:40:35.686Z,590
2017-06-06T09:41:57.950Z,600
2017-06-06T09:43:19.508Z,605
2017-06-06T09:44:42.380Z,610
2017-06-06T09:46:04.240Z,615
2017-06-06T09:47:26.411Z,600
2017-06-06T09:48:48.040Z,605
2017-06-06T09:50:10.741Z,585
2017-06-06T09:51:33.241Z,560
2017-06-06T09:52:55.421Z,545
2017-06-06T09:54:18.059Z,535
2017-06-06T09:55:40.259Z,530
2017-06-06T09:57:02.769Z,530
2017-06-06T09:58:24.671Z,540
2017-06-06T09:59:46.815Z,545
2017-06-06T10:01:09.431Z,545
2017-06-06T10:02:31.898Z,550
2017-06-06T10:03:54.397Z,555
2017-06-06T10:05:16.559Z,560
2017-06-06T10:06:39.282Z,570
2017-06-06T10:08:01.769Z,585
2017-06-06T10:09:24.240Z,600
2017-06-06T10:10:46.741Z,605
2017-06-06T10:12:09.470Z,605
2017-06-06T10:13:31.637Z,605
2017-06-06T10:14:53.807Z,575
2017-06-06T10:16:16.279Z,565
2017-06-06T10:17:38.280Z,555
2017-06-06T10:19:00.773Z,535
2017-06-06T10:20:22.613Z,530
2017-06-06T10:21:44.761Z,560
2017-06-06T10:23:07.235Z,590
2017-06-06T10:24:29.099Z,630
2017-06-06T10:25:51.602Z,630
2017-06-06T10:27:13.489Z,625
2017-06-06T10:28:34.939Z,615
2017-06-06T10:29:56.549Z,595
2017-06-06T10:31:18.486Z,585
2017-06-06T10:32:40.326Z,580
2017-06-06T10:34:03.207Z,590
2017-06-06T10:35:25.361Z,595
2017-06-06T10:36:47.548Z,585
2017-06-06T10:38:10.160Z,555
2017-06-06T10:39:32.631Z,515
2017-06-06T10:40:55.138Z,495
2017-06-06T10:42:16.988Z,545
2017-06-06T10:43:39.467Z,555
2017-06-06T10:45:01.635Z,520
2017-06-06T10:46:23.179Z,500
2017-06-06T10:47:45.670Z,500
2017-06-06T10:49:07.554Z,470
2017-06-06T10:50:29.762Z,445
2017-06-06T10:51:52.400Z,505
2017-06-06T10:53:14.580Z,440
2017-06-06T10:54:36.961Z,400
2017-06-06T10:56:01.127Z,435
2017-06-06T10:57:23.299Z,560
2017-06-06T10:58:45.786Z,595
2017-06-06T11:00:07.953Z,610
2017-06-06T11:01:30.909Z,610
2017-06-06T11:02:53.445Z,605
2017-06-06T11:04:14.658Z,595
2017-06-06T11:05:36.830Z,590
2017-06-06T11:06:59.233Z,590
2017-06-06T11:08:21.450Z,590
2017-06-06T11:09:43.636Z,600
2017-06-06T11:11:05.481Z,585
2017-06-06T11:12:28.300Z,575
2017-06-06T11:13:50.851Z,575
2017-06-06T11:15:13.343Z,585
2017-06-06T11:16:35.575Z,595
2017-06-06T11:17:58.314Z,605
2017-06-06T11:19:20.491Z,590
2017-06-06T11:20:42.679Z,590
2017-06-06T11:22:04.559Z,590
2017-06-06T11:23:27.028Z,585
2017-06-06T11:24:49.606Z,590
2017-06-06T11:26:11.768Z,595
2017-06-06T11:27:34.063Z,600
2017-06-06T11:28:56.178Z,590
2017-06-06T11:30:18.790Z,570
2017-06-06T11:31:40.958Z,555
2017-06-06T11:33:02.501Z,550
2017-06-06T11:34:25.092Z,565
2017-06-06T11:35:47.581Z,575
2017-06-06T11:37:09.789Z,585
2017-06-06T11:38:31.968Z,585
2017-06-06T11:39:54.918Z,570
2017-06-06T11:41:17.291Z,515
2017-06-06T11:42:38.903Z,450
2017-06-06T11:44:00.780Z,455
2017-06-06T11:45:23.581Z,385
2017-06-06T11:46:45.560Z,320
2017-06-06T11:48:08.038Z,315
2017-06-06T11:49:30.552Z,270
2017-06-06T11:50:52.560Z,210
2017-06-06T11:52:14.887Z,165
2017-06-06T11:53:37.230Z,185
2017-06-06T11:54:59.127Z,230
2017-06-06T11:56:21.294Z,270
2017-06-06T11:57:43.790Z,310
2017-06-06T11:59:05.649Z,355
2017-06-06T12:00:28.149Z,355
2017-06-06T12:01:50.950Z,320
2017-06-06T12:03:13.440Z,375
2017-06-06T12:04:35.607Z,450
2017-06-06T12:05:58.102Z,455
2017-06-06T12:07:20.660Z,440
2017-06-06T12:08:42.870Z,430
2017-06-06T12:10:04.829Z,465
2017-06-06T12:11:27.010Z,520
2017-06-06T12:12:49.841Z,555
2017-06-06T12:14:12.320Z,560
2017-06-06T12:15:34.227Z,555
2017-06-06T12:16:56.804Z,560
2017-06-06T12:18:18.950Z,560
2017-06-06T12:19:40.797Z,575
2017-06-06T12:21:03.294Z,550
2017-06-06T12:22:25.771Z,530
2017-06-06T12:23:47.973Z,495
2017-06-06T12:25:10.131Z,495
2017-06-06T12:26:32.347Z,500
2017-06-06T12:27:54.201Z,490
2017-06-06T12:29:16.332Z,485
2017-06-06T12:30:38.192Z,485
2017-06-06T12:32:00.340Z,475
2017-06-06T12:33:22.821Z,470
2017-06-06T12:34:45.561Z,490
2017-06-06T12:36:07.782Z,500
2017-06-06T12:37:29.962Z,500
2017-06-06T12:38:52.140Z,510
2017-06-06T12:40:14.261Z,510
2017-06-06T12:41:36.503Z,505
2017-06-06T12:42:58.665Z,500
2017-06-06T12:44:21.317Z,500
2017-06-06T12:45:43.758Z,500
2017-06-06T12:47:06.060Z,510
2017-06-06T12:48:28.334Z,535
2017-06-06T12:49:50.935Z,555
2017-06-06T12:51:13.375Z,585
2017-06-06T12:52:35.865Z,600
2017-06-06T12:53:57.738Z,590
2017-06-06T12:55:19.603Z,535
2017-06-06T12:56:42.473Z,505
2017-06-06T12:58:04.635Z,485
2017-06-06T12:59:27.134Z,465
2017-06-06T13:00:49.622Z,460
2017-06-06T13:02:11.771Z,445
2017-06-06T13:03:33.971Z,450
2017-06-06T13:04:55.975Z,430
2017-06-06T13:06:18.534Z,410
2017-06-06T13:07:40.683Z,390
2017-06-06T13:09:02.750Z,355
2017-06-06T13:10:25.232Z,310
2017-06-06T13:11:47.424Z,245
2017-06-06T13:13:10.249Z,240
2017-06-06T13:14:32.489Z,235
2017-06-06T13:15:54.994Z,290
2017-06-06T13:17:17.592Z,295
2017-06-06T13:18:39.771Z,210
2017-06-06T13:20:01.673Z,105
2017-06-06T13:21:24.141Z,50
2017-06-06T13:22:46.727Z,35
2017-06-06T13:24:09.140Z,30
2017-06-06T13:25:31.646Z,25
2017-06-06T13:26:53.894Z,30
2017-06-06T13:28:16.124Z,35
2017-06-06T13:29:38.652Z,35
2017-06-06T13:31:00.894Z,40
2017-06-06T13:32:23.055Z,45
2017-06-06T13:33:45.242Z,60
2017-06-06T13:35:07.411Z,85
2017-06-06T13:36:29.269Z,140
2017-06-06T13:37:51.473Z,165
2017-06-06T13:39:13.318Z,195
2017-06-06T13:40:36.252Z,210
2017-06-06T13:41:58.887Z,220
2017-06-06T13:43:21.443Z,200
2017-06-06T13:44:43.974Z,170
2017-06-06T13:46:06.821Z,170
2017-06-06T13:47:28.783Z,185
2017-06-06T13:48:50.595Z,185
2017-06-06T13:50:12.771Z,180
2017-06-06T13:51:35.359Z,180
2017-06-06T13:52:57.322Z,185
2017-06-06T13:54:19.805Z,230
2017-06-06T13:55:42.412Z,265
2017-06-06T13:57:04.191Z,310
2017-06-06T13:58:26.371Z,335
2017-06-06T13:59:48.672Z,400
2017-06-06T14:01:10.513Z,450
2017-06-06T14:02:33.060Z,485
2017-06-06T14:03:55.213Z,515
2017-06-06T14:05:17.735Z,555
2017-06-06T14:06:40.241Z,600
2017-06-06T14:08:02.074Z,440
2017-06-06T14:09:24.252Z,335
2017-06-06T14:10:46.415Z,290
2017-06-06T14:12:08.883Z,275
2017-06-06T14:13:31.732Z,245
2017-06-06T14:14:53.571Z,230
2017-06-06T14:16:15.572Z,255
2017-06-06T14:17:37.894Z,255
2017-06-06T14:19:00.044Z,235
2017-06-06T14:20:22.240Z,200
2017-06-06T14:21:44.832Z,155
2017-06-06T14:23:07.452Z,125
2017-06-06T14:24:29.750Z,105
2017-06-06T14:25:52.252Z,105
2017-06-06T14:27:14.744Z,110
2017-06-06T14:28:37.332Z,120
2017-06-06T14:29:59.823Z,155
2017-06-06T14:31:22.094Z,180
2017-06-06T14:32:44.581Z,200
2017-06-06T14:34:06.503Z,205
2017-06-06T14:35:29.101Z,225
2017-06-06T14:36:51.052Z,270
2017-06-06T14:38:12.918Z,280
2017-06-06T14:39:35.151Z,360
2017-06-06T14:40:57.982Z,395
2017-06-06T14:42:20.062Z,330
2017-06-06T14:43:42.242Z,270
2017-06-06T14:45:04.923Z,235
2017-06-06T14:46:27.119Z,230
2017-06-06T14:47:49.345Z,330
2017-06-06T14:49:11.960Z,270
2017-06-06T14:50:34.131Z,275
2017-06-06T14:51:56.642Z,350
2017-06-06T14:53:19.296Z,350
2017-06-06T14:54:41.502Z,310
2017-06-06T14:56:03.976Z,310
2017-06-06T14:57:26.153Z,370
2017-06-06T14:58:48.485Z,450
2017-06-06T15:00:10.706Z,445
2017-06-06T15:01:32.950Z,470
2017-06-06T15:02:55.413Z,460
2017-06-06T15:04:17.362Z,470
2017-06-06T15:05:39.878Z,410
2017-06-06T15:07:02.064Z,315
2017-06-06T15:08:25.044Z,245
2017-06-06T15:09:47.913Z,215
2017-06-06T15:11:10.479Z,200
2017-06-06T15:12:32.782Z,190
2017-06-06T15:13:55.708Z,185
2017-06-06T15:15:17.983Z,185
2017-06-06T15:16:40.171Z,185
2017-06-06T15:18:02.663Z,185
2017-06-06T15:19:25.327Z,180
2017-06-06T15:20:47.530Z,185
2017-06-06T15:22:09.395Z,180
2017-06-06T15:23:31.575Z,175
2017-06-06T15:24:54.152Z,165
2017-06-06T15:26:16.013Z,185
2017-06-06T15:27:38.191Z,220
2017-06-06T15:29:00.423Z,205
2017-06-06T15:30:23.211Z,185
2017-06-06T15:31:45.383Z,160
2017-06-06T15:33:08.025Z,165
2017-06-06T15:34:30.505Z,160
2017-06-06T15:35:52.993Z,175
2017-06-06T15:37:15.232Z,180
2017-06-06T15:38:37.736Z,210
2017-06-06T15:40:00.262Z,235
2017-06-06T15:41:22.473Z,245
2017-06-06T15:42:44.352Z,245
2017-06-06T15:44:06.653Z,250
2017-06-06T15:45:28.508Z,225
2017-06-06T15:46:51.445Z,195
2017-06-06T15:48:14.269Z,175
2017-06-06T15:49:35.815Z,160
2017-06-06T15:50:58.326Z,155
2017-06-06T15:52:20.449Z,160
2017-06-06T15:53:42.754Z,165
2017-06-06T15:55:04.615Z,225
2017-06-06T15:56:27.158Z,275
2017-06-06T15:57:49.872Z,275
2017-06-06T15:59:11.759Z,240
2017-06-06T16:00:33.669Z,240
2017-06-06T16:01:55.837Z,240
2017-06-06T16:03:18.814Z,255
2017-06-06T16:04:40.362Z,255
2017-06-06T16:06:01.897Z,270
2017-06-06T16:07:24.065Z,255
2017-06-06T16:08:46.423Z,265
2017-06-06T16:10:07.986Z,235
2017-06-06T16:11:30.332Z,260
2017-06-06T16:12:52.375Z,270
2017-06-06T16:14:15.267Z,235
2017-06-06T16:15:37.751Z,210
2017-06-06T16:16:59.955Z,195
2017-06-06T16:18:21.588Z,175
2017-06-06T16:19:44.339Z,170
2017-06-06T16:21:06.525Z,190
2017-06-06T16:22:28.855Z,270
2017-06-06T16:23:50.854Z,290
2017-06-06T16:25:13.494Z,270
2017-06-06T16:26:35.973Z,250
2017-06-06T16:27:58.156Z,245
2017-06-06T16:29:20.769Z,245
2017-06-06T16:30:42.554Z,230
2017-06-06T16:32:05.183Z,200
2017-06-06T16:33:27.383Z,220
2017-06-06T16:34:49.965Z,210
2017-06-06T16:36:12.448Z,205
2017-06-06T16:37:34.634Z,220
2017-06-06T16:38:56.495Z,235
2017-06-06T16:40:18.667Z,230
2017-06-06T16:41:40.896Z,235
2017-06-06T16:43:03.086Z,215
2017-06-06T16:44:25.664Z,185
2017-06-06T16:45:48.016Z,165
2017-06-06T16:47:10.794Z,160
2017-06-06T16:48:32.649Z,160
2017-06-06T16:49:54.804Z,165
2017-06-06T16:51:17.007Z,170
2017-06-06T16:52:39.774Z,165
2017-06-06T16:54:02.270Z,170
2017-06-06T16:55:24.776Z,180
2017-06-06T16:56:47.277Z,200
2017-06-06T16:58:09.437Z,220
2017-06-06T16:59:31.095Z,245
2017-06-06T17:00:53.578Z,245
2017-06-06T17:02:15.750Z,245
2017-06-06T17:03:38.614Z,245
2017-06-06T17:05:00.223Z,235
2017-06-06T17:06:22.076Z,235
2017-06-06T17:07:44.264Z,220
2017-06-06T17:09:06.727Z,210
2017-06-06T17:10:28.958Z,200
2017-06-06T17:11:51.475Z,195
2017-06-06T17:13:13.995Z,195
2017-06-06T17:14:36.816Z,205
2017-06-06T17:15:59.385Z,205
2017-06-06T17:17:21.882Z,210
2017-06-06T17:18:44.323Z,195
2017-06-06T17:20:07.175Z,190
2017-06-06T17:21:29.451Z,180
2017-06-06T17:22:51.637Z,175
2017-06-06T17:24:13.804Z,170
2017-06-06T17:25:35.964Z,170
2017-06-06T17:26:58.444Z,170
2017-06-06T17:28:20.001Z,170
2017-06-06T17:29:42.490Z,170
2017-06-06T17:31:05.264Z,160
2017-06-06T17:32:27.446Z,150
2017-06-06T17:33:49.634Z,130
2017-06-06T17:35:11.844Z,115
2017-06-06T17:36:34.314Z,120
2017-06-06T17:37:56.846Z,120
2017-06-06T17:39:19.109Z,110
2017-06-06T17:40:41.581Z,115
2017-06-06T17:42:04.198Z,135
2017-06-06T17:43:26.477Z,155
2017-06-06T17:44:48.657Z,160
2017-06-06T17:46:10.174Z,170
2017-06-06T17:47:32.650Z,155
2017-06-06T17:48:54.886Z,155
2017-06-06T17:50:17.447Z,135
2017-06-06T17:51:39.985Z,130
2017-06-06T17:53:02.498Z,135
2017-06-06T17:54:25.005Z,135
2017-06-06T17:55:46.867Z,135
2017-06-06T17:57:09.446Z,135
2017-06-06T17:58:31.995Z,135
2017-06-06T17:59:54.194Z,130
2017-06-06T18:01:16.394Z,130
2017-06-06T18:02:38.877Z,125
2017-06-06T18:04:01.611Z,115
2017-06-06T18:05:24.134Z,110
2017-06-06T18:06:46.617Z,105
2017-06-06T18:08:08.464Z,100
2017-06-06T18:09:30.973Z,100
2017-06-06T18:10:53.186Z,95
2017-06-06T18:12:15.455Z,95
2017-06-06T18:13:37.643Z,95
2017-06-06T18:15:00.437Z,85
2017-06-06T18:16:22.946Z,85
2017-06-06T18:17:45.135Z,80
2017-06-06T18:19:07.414Z,85
2017-06-06T18:20:29.890Z,90
2017-06-06T18:21:52.072Z,90
2017-06-06T18:23:14.578Z,90
2017-06-06T18:24:36.554Z,85
2017-06-06T18:25:59.121Z,85
2017-06-06T18:27:21.306Z,85
2017-06-06T18:28:43.824Z,70
2017-06-06T18:30:06.344Z,60
2017-06-06T18:31:28.476Z,60
2017-06-06T18:32:50.674Z,70
2017-06-06T18:34:13.018Z,80
2017-06-06T18:35:35.511Z,80
2017-06-06T18:36:58.199Z,80
2017-06-06T18:38:20.397Z,80
2017-06-06T18:39:42.976Z,75
2017-06-06T18:41:05.165Z,75
2017-06-06T18:42:27.957Z,75
2017-06-06T18:43:50.575Z,75
2017-06-06T18:45:13.106Z,70
2017-06-06T18:46:35.294Z,70
2017-06-06T18:47:58.107Z,65
2017-06-06T18:49:20.694Z,70
2017-06-06T18:50:43.226Z,70
2017-06-06T18:52:05.776Z,65
2017-06-06T18:53:28.590Z,65
2017-06-06T18:54:50.793Z,60
2017-06-06T18:56:13.327Z,55
2017-06-06T18:57:35.947Z,55
2017-06-06T18:58:58.785Z,55
2017-06-06T19:00:21.015Z,50
2017-06-06T19:01:43.516Z,55
2017-06-06T19:03:06.116Z,45
2017-06-06T19:04:28.403Z,45
2017-06-06T19:05:51.106Z,45
2017-06-06T19:07:13.665Z,45
2017-06-06T19:08:35.965Z,40